sensor_id;sensor_type;location;lat;lon;timestamp;temperature;humidity
33994;DHT22;20673;48.980;8.138;2022-12-19T00:02:12;-3.30;99.90
33994;DHT22;20673;48.980;8.138;2022-12-19T00:04:38;-3.30;99.90
33994;DHT22;20673;48.980;8.138;2022-12-19T00:07:04;-3.30;99.90
33994;DHT22;20673;48.980;8.138;2022-12-19T00:09:30;-3.30;99.90
33994;DHT22;20673;48.980;8.138;2022-12-19T00:11:56;-3.30;99.90
33994;DHT22;20673;48.980;8.138;2022-12-19T00:14:22;-3.20;99.90
33994;DHT22;20673;48.980;8.138;2022-12-19T00:16:49;-3.20;99.90
33994;DHT22;20673;48.980;8.138;2022-12-19T00:19:14;-3.20;99.90
33994;DHT22;20673;48.980;8.138;2022-12-19T00:21:40;-3.20;99.90
33994;DHT22;20673;48.980;8.138;2022-12-19T00:24:08;-3.20;99.90
33994;DHT22;20673;48.980;8.138;2022-12-19T00:26:36;-3.20;99.90
33994;DHT22;20673;48.980;8.138;2022-12-19T00:29:07;-3.20;99.90
33994;DHT22;20673;48.980;8.138;2022-12-19T00:31:34;-3.20;99.90
33994;DHT22;20673;48.980;8.138;2022-12-19T00:34:01;-3.20;99.90
33994;DHT22;20673;48.980;8.138;2022-12-19T00:36:28;-3.20;99.90
33994;DHT22;20673;48.980;8.138;2022-12-19T00:38:57;-3.10;99.90
33994;DHT22;20673;48.980;8.138;2022-12-19T00:41:27;-3.10;99.90
33994;DHT22;20673;48.980;8.138;2022-12-19T00:44:00;-3.10;99.90
33994;DHT22;20673;48.980;8.138;2022-12-19T00:46:28;-3.10;99.90
33994;DHT22;20673;48.980;8.138;2022-12-19T00:48:56;-3.10;99.90
33994;DHT22;20673;48.980;8.138;2022-12-19T00:51:23;-3.10;99.90
33994;DHT22;20673;48.980;8.138;2022-12-19T00:53:52;-3.10;99.90
33994;DHT22;20673;48.980;8.138;2022-12-19T00:56:23;-3.10;99.90
33994;DHT22;20673;48.980;8.138;2022-12-19T00:58:50;-3.00;99.90
33994;DHT22;20673;48.980;8.138;2022-12-19T01:01:18;-3.00;99.90
33994;DHT22;20673;48.980;8.138;2022-12-19T01:03:49;-3.00;99.90
33994;DHT22;20673;48.980;8.138;2022-12-19T01:06:15;-3.00;99.90
33994;DHT22;20673;48.980;8.138;2022-12-19T01:08:41;-3.00;99.90
33994;DHT22;20673;48.980;8.138;2022-12-19T01:11:08;-3.00;99.90
33994;DHT22;20673;48.980;8.138;2022-12-19T01:13:34;-2.90;99.90
33994;DHT22;20673;48.980;8.138;2022-12-19T01:16:06;-2.90;99.90
33994;DHT22;20673;48.980;8.138;2022-12-19T01:18:34;-2.90;99.90
33994;DHT22;20673;48.980;8.138;2022-12-19T01:21:01;-2.90;99.90
33994;DHT22;20673;48.980;8.138;2022-12-19T01:23:29;-2.90;99.90
33994;DHT22;20673;48.980;8.138;2022-12-19T01:25:55;-2.90;99.90
33994;DHT22;20673;48.980;8.138;2022-12-19T01:28:22;-2.90;99.90
33994;DHT22;20673;48.980;8.138;2022-12-19T01:30:49;-2.80;99.90
33994;DHT22;20673;48.980;8.138;2022-12-19T01:33:15;-2.70;99.90
33994;DHT22;20673;48.980;8.138;2022-12-19T01:35:43;-2.70;99.90
33994;DHT22;20673;48.980;8.138;2022-12-19T01:38:14;-2.80;99.90
33994;DHT22;20673;48.980;8.138;2022-12-19T01:40:49;-2.70;99.90
33994;DHT22;20673;48.980;8.138;2022-12-19T01:43:16;-2.70;99.90
33994;DHT22;20673;48.980;8.138;2022-12-19T01:45:42;-2.70;99.90
33994;DHT22;20673;48.980;8.138;2022-12-19T01:50:57;-2.80;99.90
33994;DHT22;20673;48.980;8.138;2022-12-19T01:53:27;-2.70;99.90
33994;DHT22;20673;48.980;8.138;2022-12-19T01:56:02;-2.70;99.90
33994;DHT22;20673;48.980;8.138;2022-12-19T01:58:31;-2.70;99.90
33994;DHT22;20673;48.980;8.138;2022-12-19T02:00:57;-2.70;99.90
33994;DHT22;20673;48.980;8.138;2022-12-19T02:03:25;-2.60;99.90
33994;DHT22;20673;48.980;8.138;2022-12-19T02:05:52;-2.60;99.90
33994;DHT22;20673;48.980;8.138;2022-12-19T02:08:20;-2.60;99.90
33994;DHT22;20673;48.980;8.138;2022-12-19T02:10:46;-2.60;99.90
33994;DHT22;20673;48.980;8.138;2022-12-19T02:13:13;-2.60;99.90
33994;DHT22;20673;48.980;8.138;2022-12-19T02:15:54;-2.60;99.90
33994;DHT22;20673;48.980;8.138;2022-12-19T02:21:21;-2.40;99.90
33994;DHT22;20673;48.980;8.138;2022-12-19T02:26:54;-2.50;99.90
33994;DHT22;20673;48.980;8.138;2022-12-19T02:32:06;-2.40;99.90
33994;DHT22;20673;48.980;8.138;2022-12-19T02:34:44;-2.50;99.90
33994;DHT22;20673;48.980;8.138;2022-12-19T02:37:17;-2.30;99.90
33994;DHT22;20673;48.980;8.138;2022-12-19T02:40:00;-2.30;99.90
33994;DHT22;20673;48.980;8.138;2022-12-19T02:42:28;-2.30;99.90
33994;DHT22;20673;48.980;8.138;2022-12-19T02:44:57;-2.40;99.90
33994;DHT22;20673;48.980;8.138;2022-12-19T02:47:25;-2.40;99.90
33994;DHT22;20673;48.980;8.138;2022-12-19T02:49:52;-2.40;99.90
33994;DHT22;20673;48.980;8.138;2022-12-19T02:54:49;-2.30;99.90
33994;DHT22;20673;48.980;8.138;2022-12-19T02:57:22;-2.40;99.90
33994;DHT22;20673;48.980;8.138;2022-12-19T03:02:35;-2.40;99.90
33994;DHT22;20673;48.980;8.138;2022-12-19T03:05:07;-2.50;99.90
33994;DHT22;20673;48.980;8.138;2022-12-19T03:07:43;-2.50;99.90
33994;DHT22;20673;48.980;8.138;2022-12-19T03:10:35;-2.50;99.90
33994;DHT22;20673;48.980;8.138;2022-12-19T03:13:05;-2.40;99.90
33994;DHT22;20673;48.980;8.138;2022-12-19T03:15:48;-2.40;99.90
33994;DHT22;20673;48.980;8.138;2022-12-19T03:18:14;-2.50;99.90
33994;DHT22;20673;48.980;8.138;2022-12-19T03:23:16;-2.50;99.90
33994;DHT22;20673;48.980;8.138;2022-12-19T03:25:44;-2.50;99.90
33994;DHT22;20673;48.980;8.138;2022-12-19T03:28:15;-2.40;99.90
33994;DHT22;20673;48.980;8.138;2022-12-19T03:30:42;-2.40;99.90
33994;DHT22;20673;48.980;8.138;2022-12-19T03:33:10;-2.40;99.90
33994;DHT22;20673;48.980;8.138;2022-12-19T03:35:38;-2.40;99.90
33994;DHT22;20673;48.980;8.138;2022-12-19T03:38:05;-2.40;99.90
33994;DHT22;20673;48.980;8.138;2022-12-19T03:40:35;-2.40;99.90
33994;DHT22;20673;48.980;8.138;2022-12-19T03:43:03;-2.40;99.90
33994;DHT22;20673;48.980;8.138;2022-12-19T03:59:14;-2.40;99.90
33994;DHT22;20673;48.980;8.138;2022-12-19T04:01:58;-2.30;99.90
33994;DHT22;20673;48.980;8.138;2022-12-19T04:04:26;-2.20;99.90
33994;DHT22;20673;48.980;8.138;2022-12-19T04:06:53;-2.20;99.90
33994;DHT22;20673;48.980;8.138;2022-12-19T04:09:21;-2.30;99.90
33994;DHT22;20673;48.980;8.138;2022-12-19T04:11:49;-2.20;99.90
33994;DHT22;20673;48.980;8.138;2022-12-19T04:14:23;-2.30;99.90
33994;DHT22;20673;48.980;8.138;2022-12-19T04:19:43;-2.20;99.90
33994;DHT22;20673;48.980;8.138;2022-12-19T04:22:21;-2.30;99.90
33994;DHT22;20673;48.980;8.138;2022-12-19T04:24:52;-2.20;99.90
33994;DHT22;20673;48.980;8.138;2022-12-19T04:27:20;-2.30;99.90
33994;DHT22;20673;48.980;8.138;2022-12-19T04:29:47;-2.30;99.90
33994;DHT22;20673;48.980;8.138;2022-12-19T04:32:16;-2.30;99.90
33994;DHT22;20673;48.980;8.138;2022-12-19T04:34:43;-2.30;99.90
33994;DHT22;20673;48.980;8.138;2022-12-19T04:37:09;-2.30;99.90
33994;DHT22;20673;48.980;8.138;2022-12-19T04:39:36;-2.30;99.90
33994;DHT22;20673;48.980;8.138;2022-12-19T04:42:02;-2.30;99.90
33994;DHT22;20673;48.980;8.138;2022-12-19T04:44:28;-2.30;99.90
33994;DHT22;20673;48.980;8.138;2022-12-19T04:46:54;-2.20;99.90
33994;DHT22;20673;48.980;8.138;2022-12-19T04:49:20;-2.20;99.90
33994;DHT22;20673;48.980;8.138;2022-12-19T04:51:46;-2.20;99.90
33994;DHT22;20673;48.980;8.138;2022-12-19T04:54:13;-2.20;99.90
33994;DHT22;20673;48.980;8.138;2022-12-19T04:56:40;-2.20;99.90
33994;DHT22;20673;48.980;8.138;2022-12-19T04:59:06;-2.20;99.90
33994;DHT22;20673;48.980;8.138;2022-12-19T05:01:32;-2.20;99.90
33994;DHT22;20673;48.980;8.138;2022-12-19T05:03:58;-2.20;99.90
33994;DHT22;20673;48.980;8.138;2022-12-19T05:06:24;-2.20;99.90
33994;DHT22;20673;48.980;8.138;2022-12-19T05:08:50;-2.20;99.90
33994;DHT22;20673;48.980;8.138;2022-12-19T05:11:16;-2.20;99.90
33994;DHT22;20673;48.980;8.138;2022-12-19T05:13:42;-2.20;99.90
33994;DHT22;20673;48.980;8.138;2022-12-19T05:16:09;-2.20;99.90
33994;DHT22;20673;48.980;8.138;2022-12-19T05:18:36;-2.20;99.90
33994;DHT22;20673;48.980;8.138;2022-12-19T05:21:03;-2.20;99.90
33994;DHT22;20673;48.980;8.138;2022-12-19T05:23:30;-2.20;99.90
33994;DHT22;20673;48.980;8.138;2022-12-19T05:25:56;-2.30;99.90
33994;DHT22;20673;48.980;8.138;2022-12-19T05:28:23;-2.20;99.90
33994;DHT22;20673;48.980;8.138;2022-12-19T05:30:49;-2.20;99.90
33994;DHT22;20673;48.980;8.138;2022-12-19T05:33:16;-2.20;99.90
33994;DHT22;20673;48.980;8.138;2022-12-19T05:35:42;-2.20;99.90
33994;DHT22;20673;48.980;8.138;2022-12-19T05:38:08;-2.20;99.90
33994;DHT22;20673;48.980;8.138;2022-12-19T05:40:34;-2.20;99.90
33994;DHT22;20673;48.980;8.138;2022-12-19T05:43:00;-2.00;99.90
33994;DHT22;20673;48.980;8.138;2022-12-19T05:45:26;-2.00;99.90
33994;DHT22;20673;48.980;8.138;2022-12-19T05:47:52;-2.00;99.90
33994;DHT22;20673;48.980;8.138;2022-12-19T05:50:18;-2.00;99.90
33994;DHT22;20673;48.980;8.138;2022-12-19T05:52:44;-1.90;99.90
33994;DHT22;20673;48.980;8.138;2022-12-19T05:55:10;-1.90;99.90
33994;DHT22;20673;48.980;8.138;2022-12-19T05:57:37;-1.90;99.90
33994;DHT22;20673;48.980;8.138;2022-12-19T06:00:03;-1.90;99.90
33994;DHT22;20673;48.980;8.138;2022-12-19T06:02:32;-1.90;99.90
33994;DHT22;20673;48.980;8.138;2022-12-19T06:04:59;-1.90;99.90
33994;DHT22;20673;48.980;8.138;2022-12-19T06:07:25;-1.90;99.90
33994;DHT22;20673;48.980;8.138;2022-12-19T06:09:51;-1.90;99.90
33994;DHT22;20673;48.980;8.138;2022-12-19T06:12:17;-1.80;99.90
33994;DHT22;20673;48.980;8.138;2022-12-19T06:14:43;-1.80;99.90
33994;DHT22;20673;48.980;8.138;2022-12-19T06:17:09;-1.80;99.90
33994;DHT22;20673;48.980;8.138;2022-12-19T06:19:35;-1.80;99.90
33994;DHT22;20673;48.980;8.138;2022-12-19T06:22:01;-1.80;99.90
33994;DHT22;20673;48.980;8.138;2022-12-19T06:24:27;-1.80;99.90
33994;DHT22;20673;48.980;8.138;2022-12-19T06:26:53;-1.60;99.90
33994;DHT22;20673;48.980;8.138;2022-12-19T06:29:19;-1.70;99.90
33994;DHT22;20673;48.980;8.138;2022-12-19T06:31:45;-1.70;99.90
33994;DHT22;20673;48.980;8.138;2022-12-19T06:34:11;-1.70;99.90
33994;DHT22;20673;48.980;8.138;2022-12-19T06:36:37;-1.80;99.90
33994;DHT22;20673;48.980;8.138;2022-12-19T06:39:05;-1.60;99.90
33994;DHT22;20673;48.980;8.138;2022-12-19T06:41:31;-1.70;99.90
33994;DHT22;20673;48.980;8.138;2022-12-19T06:44:15;-1.60;99.90
33994;DHT22;20673;48.980;8.138;2022-12-19T06:46:42;-1.60;99.90
33994;DHT22;20673;48.980;8.138;2022-12-19T06:49:08;-1.60;99.90
33994;DHT22;20673;48.980;8.138;2022-12-19T06:51:35;-1.60;99.90
33994;DHT22;20673;48.980;8.138;2022-12-19T06:54:01;-1.60;99.90
33994;DHT22;20673;48.980;8.138;2022-12-19T06:56:27;-1.60;99.90
33994;DHT22;20673;48.980;8.138;2022-12-19T06:58:59;-1.60;99.90
33994;DHT22;20673;48.980;8.138;2022-12-19T07:04:17;-1.60;99.90
33994;DHT22;20673;48.980;8.138;2022-12-19T07:06:49;-1.50;99.90
33994;DHT22;20673;48.980;8.138;2022-12-19T07:09:15;-1.50;99.90
33994;DHT22;20673;48.980;8.138;2022-12-19T07:11:42;-1.50;99.90
33994;DHT22;20673;48.980;8.138;2022-12-19T07:14:08;-1.50;99.90
33994;DHT22;20673;48.980;8.138;2022-12-19T07:16:34;-1.50;99.90
33994;DHT22;20673;48.980;8.138;2022-12-19T07:19:00;-1.50;99.90
33994;DHT22;20673;48.980;8.138;2022-12-19T07:21:26;-1.50;99.90
33994;DHT22;20673;48.980;8.138;2022-12-19T07:23:53;-1.50;99.90
33994;DHT22;20673;48.980;8.138;2022-12-19T07:26:19;-1.50;99.90
33994;DHT22;20673;48.980;8.138;2022-12-19T07:28:46;-1.40;99.90
33994;DHT22;20673;48.980;8.138;2022-12-19T07:31:13;-1.40;99.90
33994;DHT22;20673;48.980;8.138;2022-12-19T07:33:39;-1.40;99.90
33994;DHT22;20673;48.980;8.138;2022-12-19T07:36:05;-1.40;99.90
33994;DHT22;20673;48.980;8.138;2022-12-19T07:38:31;-1.40;99.90
33994;DHT22;20673;48.980;8.138;2022-12-19T07:40:59;-1.40;99.90
33994;DHT22;20673;48.980;8.138;2022-12-19T07:43:25;-1.30;99.90
33994;DHT22;20673;48.980;8.138;2022-12-19T07:45:55;-1.30;99.90
33994;DHT22;20673;48.980;8.138;2022-12-19T07:48:21;-1.30;99.90
33994;DHT22;20673;48.980;8.138;2022-12-19T07:50:48;-1.20;99.90
33994;DHT22;20673;48.980;8.138;2022-12-19T07:53:14;-1.20;99.90
33994;DHT22;20673;48.980;8.138;2022-12-19T07:55:41;-1.10;99.90
33994;DHT22;20673;48.980;8.138;2022-12-19T07:58:07;-1.10;99.90
33994;DHT22;20673;48.980;8.138;2022-12-19T08:00:36;-1.10;99.90
33994;DHT22;20673;48.980;8.138;2022-12-19T08:03:02;-1.10;99.90
33994;DHT22;20673;48.980;8.138;2022-12-19T08:05:28;-1.00;99.90
33994;DHT22;20673;48.980;8.138;2022-12-19T08:07:55;-1.00;99.90
33994;DHT22;20673;48.980;8.138;2022-12-19T08:10:21;-0.90;99.90
33994;DHT22;20673;48.980;8.138;2022-12-19T08:12:47;-0.90;99.90
33994;DHT22;20673;48.980;8.138;2022-12-19T08:15:13;-0.90;99.90
33994;DHT22;20673;48.980;8.138;2022-12-19T08:17:39;-0.80;99.90
33994;DHT22;20673;48.980;8.138;2022-12-19T08:20:06;-0.80;99.90
33994;DHT22;20673;48.980;8.138;2022-12-19T08:22:33;-0.80;99.90
33994;DHT22;20673;48.980;8.138;2022-12-19T08:24:59;-0.70;99.90
33994;DHT22;20673;48.980;8.138;2022-12-19T08:27:25;-0.60;99.90
33994;DHT22;20673;48.980;8.138;2022-12-19T08:29:51;-0.60;99.90
33994;DHT22;20673;48.980;8.138;2022-12-19T08:32:18;-0.60;99.90
33994;DHT22;20673;48.980;8.138;2022-12-19T08:34:44;-0.50;99.90
33994;DHT22;20673;48.980;8.138;2022-12-19T08:37:11;-0.40;99.90
33994;DHT22;20673;48.980;8.138;2022-12-19T08:39:37;-0.30;99.90
33994;DHT22;20673;48.980;8.138;2022-12-19T08:42:03;-0.30;99.90
33994;DHT22;20673;48.980;8.138;2022-12-19T08:44:29;-0.30;99.90
33994;DHT22;20673;48.980;8.138;2022-12-19T08:46:55;-0.30;99.90
33994;DHT22;20673;48.980;8.138;2022-12-19T08:49:21;-0.20;99.90
33994;DHT22;20673;48.980;8.138;2022-12-19T08:51:47;-0.20;99.90
33994;DHT22;20673;48.980;8.138;2022-12-19T08:54:14;-0.20;99.90
33994;DHT22;20673;48.980;8.138;2022-12-19T08:56:40;-0.10;99.90
33994;DHT22;20673;48.980;8.138;2022-12-19T08:59:06;-0.10;99.90
33994;DHT22;20673;48.980;8.138;2022-12-19T09:01:32;0.00;99.90
33994;DHT22;20673;48.980;8.138;2022-12-19T09:03:59;0.00;99.90
33994;DHT22;20673;48.980;8.138;2022-12-19T09:06:25;0.00;99.90
33994;DHT22;20673;48.980;8.138;2022-12-19T09:08:51;0.10;99.90
33994;DHT22;20673;48.980;8.138;2022-12-19T09:11:18;0.10;99.90
33994;DHT22;20673;48.980;8.138;2022-12-19T09:13:45;0.10;99.90
33994;DHT22;20673;48.980;8.138;2022-12-19T09:18:45;0.30;99.90
33994;DHT22;20673;48.980;8.138;2022-12-19T09:21:14;0.40;99.90
33994;DHT22;20673;48.980;8.138;2022-12-19T09:23:41;0.40;99.90
33994;DHT22;20673;48.980;8.138;2022-12-19T09:26:09;0.50;99.90
33994;DHT22;20673;48.980;8.138;2022-12-19T09:28:37;0.50;99.90
33994;DHT22;20673;48.980;8.138;2022-12-19T09:31:12;0.60;99.90
33994;DHT22;20673;48.980;8.138;2022-12-19T09:33:40;0.60;99.90
33994;DHT22;20673;48.980;8.138;2022-12-19T09:36:07;0.70;99.90
33994;DHT22;20673;48.980;8.138;2022-12-19T09:38:36;0.80;99.90
33994;DHT22;20673;48.980;8.138;2022-12-19T09:47:17;1.10;99.90
33994;DHT22;20673;48.980;8.138;2022-12-19T09:49:46;1.10;99.90
33994;DHT22;20673;48.980;8.138;2022-12-19T09:55:18;1.40;99.90
33994;DHT22;20673;48.980;8.138;2022-12-19T10:00:16;1.50;99.90
33994;DHT22;20673;48.980;8.138;2022-12-19T10:08:14;1.50;99.90
33994;DHT22;20673;48.980;8.138;2022-12-19T10:19:34;1.50;99.90
33994;DHT22;20673;48.980;8.138;2022-12-19T10:22:38;1.60;99.90
33994;DHT22;20673;48.980;8.138;2022-12-19T10:25:32;1.80;99.90
33994;DHT22;20673;48.980;8.138;2022-12-19T10:30:51;1.70;99.90
33994;DHT22;20673;48.980;8.138;2022-12-19T10:33:36;1.80;99.90
33994;DHT22;20673;48.980;8.138;2022-12-19T10:36:08;1.90;99.90
33994;DHT22;20673;48.980;8.138;2022-12-19T10:38:56;2.00;99.90
33994;DHT22;20673;48.980;8.138;2022-12-19T10:41:24;2.10;99.90
33994;DHT22;20673;48.980;8.138;2022-12-19T10:44:06;2.30;99.90
33994;DHT22;20673;48.980;8.138;2022-12-19T10:46:48;2.40;99.90
33994;DHT22;20673;48.980;8.138;2022-12-19T10:49:13;2.40;99.90
33994;DHT22;20673;48.980;8.138;2022-12-19T10:52:02;2.40;99.90
33994;DHT22;20673;48.980;8.138;2022-12-19T10:57:18;2.40;99.90
33994;DHT22;20673;48.980;8.138;2022-12-19T11:13:19;2.40;99.90
33994;DHT22;20673;48.980;8.138;2022-12-19T11:15:55;2.30;99.90
33994;DHT22;20673;48.980;8.138;2022-12-19T11:18:23;2.30;99.90
33994;DHT22;20673;48.980;8.138;2022-12-19T11:21:01;2.40;99.90
33994;DHT22;20673;48.980;8.138;2022-12-19T11:23:30;2.40;99.90
33994;DHT22;20673;48.980;8.138;2022-12-19T11:26:00;2.50;99.90
33994;DHT22;20673;48.980;8.138;2022-12-19T11:28:32;2.60;99.90
33994;DHT22;20673;48.980;8.138;2022-12-19T11:31:07;2.70;99.90
33994;DHT22;20673;48.980;8.138;2022-12-19T11:33:36;2.80;99.90
33994;DHT22;20673;48.980;8.138;2022-12-19T11:36:03;2.90;99.90
33994;DHT22;20673;48.980;8.138;2022-12-19T11:38:37;3.00;99.90
33994;DHT22;20673;48.980;8.138;2022-12-19T11:41:16;3.00;99.90
33994;DHT22;20673;48.980;8.138;2022-12-19T11:44:17;3.00;99.90
33994;DHT22;20673;48.980;8.138;2022-12-19T11:46:50;2.90;99.90
33994;DHT22;20673;48.980;8.138;2022-12-19T11:51:58;2.90;99.90
33994;DHT22;20673;48.980;8.138;2022-12-19T11:57:23;3.00;99.90
33994;DHT22;20673;48.980;8.138;2022-12-19T11:59:50;2.80;99.90
33994;DHT22;20673;48.980;8.138;2022-12-19T12:07:54;2.70;99.90
33994;DHT22;20673;48.980;8.138;2022-12-19T12:10:20;2.60;99.90
33994;DHT22;20673;48.980;8.138;2022-12-19T12:13:03;2.60;99.90
33994;DHT22;20673;48.980;8.138;2022-12-19T12:21:03;2.70;99.90
33994;DHT22;20673;48.980;8.138;2022-12-19T12:23:37;2.70;99.90
33994;DHT22;20673;48.980;8.138;2022-12-19T12:26:28;2.80;99.90
33994;DHT22;20673;48.980;8.138;2022-12-19T12:29:01;2.80;99.90
33994;DHT22;20673;48.980;8.138;2022-12-19T12:37:16;3.00;99.90
33994;DHT22;20673;48.980;8.138;2022-12-19T12:44:45;3.00;99.90
33994;DHT22;20673;48.980;8.138;2022-12-19T12:47:19;2.90;99.90
33994;DHT22;20673;48.980;8.138;2022-12-19T12:52:32;3.00;99.90
33994;DHT22;20673;48.980;8.138;2022-12-19T12:55:02;3.00;99.90
33994;DHT22;20673;48.980;8.138;2022-12-19T12:57:32;2.80;99.90
33994;DHT22;20673;48.980;8.138;2022-12-19T13:00:17;2.90;99.90
33994;DHT22;20673;48.980;8.138;2022-12-19T13:02:46;2.80;99.90
33994;DHT22;20673;48.980;8.138;2022-12-19T13:05:23;2.70;99.90
33994;DHT22;20673;48.980;8.138;2022-12-19T13:11:53;2.70;99.90
33994;DHT22;20673;48.980;8.138;2022-12-19T13:13:51;2.70;99.90
33994;DHT22;20673;48.980;8.138;2022-12-19T13:32:22;2.70;99.90
33994;DHT22;20673;48.980;8.138;2022-12-19T13:34:52;2.70;99.90
33994;DHT22;20673;48.980;8.138;2022-12-19T13:37:27;2.70;99.90
33994;DHT22;20673;48.980;8.138;2022-12-19T13:39:59;2.80;99.90
33994;DHT22;20673;48.980;8.138;2022-12-19T13:42:27;2.80;99.90
33994;DHT22;20673;48.980;8.138;2022-12-19T13:47:52;2.90;99.90
33994;DHT22;20673;48.980;8.138;2022-12-19T13:50:30;2.90;99.90
33994;DHT22;20673;48.980;8.138;2022-12-19T13:53:01;2.90;99.90
33994;DHT22;20673;48.980;8.138;2022-12-19T13:55:29;2.80;99.90
33994;DHT22;20673;48.980;8.138;2022-12-19T13:57:56;2.80;99.90
33994;DHT22;20673;48.980;8.138;2022-12-19T14:00:33;2.90;99.90
33994;DHT22;20673;48.980;8.138;2022-12-19T14:02:58;2.90;99.90
33994;DHT22;20673;48.980;8.138;2022-12-19T14:05:29;2.90;99.90
33994;DHT22;20673;48.980;8.138;2022-12-19T14:07:57;3.00;99.90
33994;DHT22;20673;48.980;8.138;2022-12-19T14:10:27;3.00;99.90
33994;DHT22;20673;48.980;8.138;2022-12-19T14:12:56;3.10;99.90
33994;DHT22;20673;48.980;8.138;2022-12-19T14:15:45;3.10;99.90
33994;DHT22;20673;48.980;8.138;2022-12-19T14:20:45;3.10;99.90
33994;DHT22;20673;48.980;8.138;2022-12-19T14:23:16;3.10;99.90
33994;DHT22;20673;48.980;8.138;2022-12-19T14:25:45;3.10;99.90
33994;DHT22;20673;48.980;8.138;2022-12-19T14:28:23;3.10;99.90
33994;DHT22;20673;48.980;8.138;2022-12-19T14:30:48;3.10;99.90
33994;DHT22;20673;48.980;8.138;2022-12-19T14:33:19;3.00;99.90
33994;DHT22;20673;48.980;8.138;2022-12-19T14:35:48;2.90;99.90
33994;DHT22;20673;48.980;8.138;2022-12-19T14:38:17;2.90;99.90
33994;DHT22;20673;48.980;8.138;2022-12-19T14:40:45;2.80;99.90
33994;DHT22;20673;48.980;8.138;2022-12-19T14:46:12;2.60;99.90
33994;DHT22;20673;48.980;8.138;2022-12-19T14:48:56;2.50;99.90
33994;DHT22;20673;48.980;8.138;2022-12-19T14:51:26;2.30;99.90
33994;DHT22;20673;48.980;8.138;2022-12-19T15:04:34;1.90;99.90
33994;DHT22;20673;48.980;8.138;2022-12-19T15:07:12;1.80;99.90
33994;DHT22;20673;48.980;8.138;2022-12-19T15:09:37;1.70;99.90
33994;DHT22;20673;48.980;8.138;2022-12-19T15:12:28;1.60;99.90
33994;DHT22;20673;48.980;8.138;2022-12-19T15:15:21;1.60;99.90
33994;DHT22;20673;48.980;8.138;2022-12-19T15:17:52;1.50;99.90
33994;DHT22;20673;48.980;8.138;2022-12-19T15:20:18;1.40;99.90
33994;DHT22;20673;48.980;8.138;2022-12-19T15:22:45;1.30;99.90
33994;DHT22;20673;48.980;8.138;2022-12-19T15:25:16;1.30;99.90
33994;DHT22;20673;48.980;8.138;2022-12-19T15:27:41;1.20;99.90
33994;DHT22;20673;48.980;8.138;2022-12-19T15:30:15;1.10;99.90
33994;DHT22;20673;48.980;8.138;2022-12-19T15:32:43;1.00;99.90
33994;DHT22;20673;48.980;8.138;2022-12-19T15:35:11;0.90;99.90
33994;DHT22;20673;48.980;8.138;2022-12-19T15:37:38;0.90;99.90
33994;DHT22;20673;48.980;8.138;2022-12-19T15:40:04;0.80;99.90
33994;DHT22;20673;48.980;8.138;2022-12-19T15:42:31;0.70;99.90
33994;DHT22;20673;48.980;8.138;2022-12-19T15:44:57;0.70;99.90
33994;DHT22;20673;48.980;8.138;2022-12-19T15:47:32;0.60;99.90
33994;DHT22;20673;48.980;8.138;2022-12-19T15:49:59;0.60;99.90
33994;DHT22;20673;48.980;8.138;2022-12-19T15:52:27;0.50;99.90
33994;DHT22;20673;48.980;8.138;2022-12-19T15:54:53;0.60;99.90
33994;DHT22;20673;48.980;8.138;2022-12-19T15:59:59;0.50;99.90
33994;DHT22;20673;48.980;8.138;2022-12-19T16:02:27;0.40;99.90
33994;DHT22;20673;48.980;8.138;2022-12-19T16:04:56;0.50;99.90
33994;DHT22;20673;48.980;8.138;2022-12-19T16:07:22;0.40;99.90
33994;DHT22;20673;48.980;8.138;2022-12-19T16:09:50;0.50;99.90
33994;DHT22;20673;48.980;8.138;2022-12-19T16:12:17;0.40;99.90
33994;DHT22;20673;48.980;8.138;2022-12-19T16:14:46;0.40;99.90
33994;DHT22;20673;48.980;8.138;2022-12-19T16:17:17;0.40;99.90
33994;DHT22;20673;48.980;8.138;2022-12-19T16:19:44;0.40;99.90
33994;DHT22;20673;48.980;8.138;2022-12-19T16:22:28;0.40;99.90
33994;DHT22;20673;48.980;8.138;2022-12-19T16:24:44;0.30;99.90
33994;DHT22;20673;48.980;8.138;2022-12-19T16:27:14;0.20;99.90
33994;DHT22;20673;48.980;8.138;2022-12-19T16:29:40;0.20;99.90
33994;DHT22;20673;48.980;8.138;2022-12-19T16:32:07;0.20;99.90
33994;DHT22;20673;48.980;8.138;2022-12-19T16:34:35;0.30;99.90
33994;DHT22;20673;48.980;8.138;2022-12-19T16:37:01;0.30;99.90
33994;DHT22;20673;48.980;8.138;2022-12-19T16:39:27;0.30;99.90
33994;DHT22;20673;48.980;8.138;2022-12-19T16:41:53;0.20;99.90
33994;DHT22;20673;48.980;8.138;2022-12-19T16:44:21;0.20;99.90
33994;DHT22;20673;48.980;8.138;2022-12-19T16:46:48;0.20;99.90
33994;DHT22;20673;48.980;8.138;2022-12-19T16:49:16;0.20;99.90
33994;DHT22;20673;48.980;8.138;2022-12-19T16:51:43;0.10;99.90
33994;DHT22;20673;48.980;8.138;2022-12-19T16:54:11;0.10;99.90
33994;DHT22;20673;48.980;8.138;2022-12-19T16:56:41;0.10;99.90
33994;DHT22;20673;48.980;8.138;2022-12-19T17:01:46;0.10;99.90
33994;DHT22;20673;48.980;8.138;2022-12-19T17:04:13;0.10;99.90
33994;DHT22;20673;48.980;8.138;2022-12-19T17:06:40;0.20;99.90
33994;DHT22;20673;48.980;8.138;2022-12-19T17:09:07;0.10;99.90
33994;DHT22;20673;48.980;8.138;2022-12-19T17:11:35;0.00;99.90
33994;DHT22;20673;48.980;8.138;2022-12-19T17:14:02;0.00;99.90
33994;DHT22;20673;48.980;8.138;2022-12-19T17:16:33;0.00;99.90
33994;DHT22;20673;48.980;8.138;2022-12-19T17:18:59;0.00;99.90
33994;DHT22;20673;48.980;8.138;2022-12-19T17:21:25;0.00;99.90
33994;DHT22;20673;48.980;8.138;2022-12-19T17:23:52;-0.10;99.90
33994;DHT22;20673;48.980;8.138;2022-12-19T17:26:18;-0.10;99.90
33994;DHT22;20673;48.980;8.138;2022-12-19T17:28:44;-0.10;99.90
33994;DHT22;20673;48.980;8.138;2022-12-19T17:31:22;-0.10;99.90
33994;DHT22;20673;48.980;8.138;2022-12-19T17:33:48;-0.20;99.90
33994;DHT22;20673;48.980;8.138;2022-12-19T17:36:14;-0.20;99.90
33994;DHT22;20673;48.980;8.138;2022-12-19T17:38:40;-0.20;99.90
33994;DHT22;20673;48.980;8.138;2022-12-19T17:41:11;-0.30;99.90
33994;DHT22;20673;48.980;8.138;2022-12-19T17:43:36;-0.30;99.90
33994;DHT22;20673;48.980;8.138;2022-12-19T17:46:02;-0.30;99.90
33994;DHT22;20673;48.980;8.138;2022-12-19T17:48:29;-0.40;99.90
33994;DHT22;20673;48.980;8.138;2022-12-19T17:50:58;-0.40;99.90
33994;DHT22;20673;48.980;8.138;2022-12-19T17:53:24;-0.40;99.90
33994;DHT22;20673;48.980;8.138;2022-12-19T17:55:50;-0.40;99.90
33994;DHT22;20673;48.980;8.138;2022-12-19T17:58:17;-0.40;99.90
33994;DHT22;20673;48.980;8.138;2022-12-19T18:00:43;-0.40;99.90
33994;DHT22;20673;48.980;8.138;2022-12-19T18:03:32;-0.40;99.90
33994;DHT22;20673;48.980;8.138;2022-12-19T18:05:44;-0.40;99.90
33994;DHT22;20673;48.980;8.138;2022-12-19T18:10:56;-0.50;99.90
33994;DHT22;20673;48.980;8.138;2022-12-19T18:13:26;-0.50;99.90
33994;DHT22;20673;48.980;8.138;2022-12-19T18:15:57;-0.50;99.90
33994;DHT22;20673;48.980;8.138;2022-12-19T18:18:29;-0.40;99.90
33994;DHT22;20673;48.980;8.138;2022-12-19T18:21:02;-0.40;99.90
33994;DHT22;20673;48.980;8.138;2022-12-19T18:23:25;-0.40;99.90
33994;DHT22;20673;48.980;8.138;2022-12-19T18:25:52;-0.40;99.90
33994;DHT22;20673;48.980;8.138;2022-12-19T18:28:18;-0.40;99.90
33994;DHT22;20673;48.980;8.138;2022-12-19T18:30:45;-0.30;99.90
33994;DHT22;20673;48.980;8.138;2022-12-19T18:33:15;-0.30;99.90